Huvudsida
METAR-TAF:

METAR-TAF

Flygplatser :

Vadsø, Norge

Vadsø flygplats

latitud: 70-04N, longitud: 029-51E, höjd: 3 m

Aktuellt väderrapport

Denna rapport gjordes för 11 minuter sedan, klockan 03:20 UTC
Vind 17 kt från ost
Temperatur -4°C
Fuktighet 86%
Tryck 1008 hPa
Sikt 10 km eller mer
Brutna moln på en höjd av 1300 ft

METAR: ENVD 190320Z 08017KT 9999 BKN013 M04/M06 Q1008

Tid: 04:31 (03:31 UTC)

Väderprognos

Denna rapport gjordes för 7 timmar och 31 minuter sedan, klockan 20:00 UTC
Prognos gäller från 18 kl. 21 UTC till 18 kl. 24 UTC
Vind 8 kt från ost/sydost
Sikt 10 km eller mer
Spridda moln på en höjd av 1200 ft
Brutna moln på en höjd av 3000 ft
Temporärt
från 18 kl. 21 UTC till 18 kl. 24 UTC
Spridda moln på en höjd av 800 ft
Brutna moln på en höjd av 1200 ft

TAF: ENVD 182000Z 1821/1824 12008KT 9999 SCT012 BKN030 TEMPO 1821/1824 SCT008 BKN012

Aktuella väderrapporter och prognoser från 4000 flygplatser (METAR- och TAF-rapporter).

De tillgängliga stationerna syns som gula och röda prickar på kartan.

För musen över prickarna för att se namnen på stationerna.

Klicka sedan för att få väderrapporter och prognoser.

För att ändra kartan: Klicka på de gröna knapparna med ett svart kors på för att zooma in; den gröna knappen med ett streck på för att zooma ut; eller på de gröna pilarna för angränsande kartor.


METAR-TAF: